createdAt,value
2022-08-26T00:01:53.027Z,10.80
2022-08-26T00:04:23.639Z,11.32
2022-08-26T00:06:50.901Z,11.90
2022-08-26T00:09:17.729Z,12.07
2022-08-26T00:11:45.559Z,11.88
2022-08-26T00:14:13.977Z,10.88
2022-08-26T00:16:47.864Z,11.50
2022-08-26T00:19:18.104Z,11.27
2022-08-26T00:21:46.501Z,14.18
2022-08-26T00:24:16.261Z,11.63
2022-08-26T00:26:43.367Z,11.82
2022-08-26T00:29:10.228Z,12.10
2022-08-26T00:31:37.916Z,12.50
2022-08-26T00:34:05.664Z,12.90
2022-08-26T00:36:32.598Z,13.43
2022-08-26T00:38:59.400Z,12.55
2022-08-26T00:41:26.544Z,13.05
2022-08-26T00:43:54.249Z,12.38
2022-08-26T00:46:25.689Z,14.57
2022-08-26T00:48:57.696Z,13.32
2022-08-26T00:51:30.056Z,11.77
2022-08-26T00:54:10.735Z,12.75
2022-08-26T00:56:47.088Z,10.88
2022-08-26T00:59:17.962Z,11.70
2022-08-26T01:01:46.060Z,10.70
2022-08-26T01:04:15.967Z,11.90
2022-08-26T01:06:44.413Z,11.98
2022-08-26T01:09:11.920Z,12.52
2022-08-26T01:11:39.300Z,12.05
2022-08-26T01:14:07.649Z,13.18
2022-08-26T01:16:36.076Z,13.27
2022-08-26T01:19:14.070Z,12.93
2022-08-26T01:22:10.109Z,11.80
2022-08-26T01:24:38.558Z,15.30
2022-08-26T01:27:08.898Z,12.50
2022-08-26T01:29:39.195Z,12.40
2022-08-26T01:32:10.013Z,14.30
2022-08-26T01:34:38.881Z,13.07
2022-08-26T01:37:15.535Z,11.50
2022-08-26T01:39:44.909Z,11.98
2022-08-26T01:42:14.976Z,12.88
2022-08-26T01:45:06.203Z,12.48
2022-08-26T01:47:36.590Z,12.70
2022-08-26T01:50:09.922Z,13.35
2022-08-26T01:52:41.487Z,13.18
2022-08-26T01:55:11.396Z,12.40
2022-08-26T01:57:38.181Z,13.20
2022-08-26T02:00:09.481Z,12.85
2022-08-26T02:02:39.861Z,13.02
2022-08-26T02:05:14.220Z,13.60
2022-08-26T02:07:42.131Z,14.80
2022-08-26T02:10:09.493Z,15.15
2022-08-26T02:12:37.175Z,16.45
2022-08-26T02:15:08.478Z,17.35
2022-08-26T02:17:44.209Z,15.48
2022-08-26T02:20:14.941Z,17.25
2022-08-26T02:22:43.023Z,15.30
2022-08-26T02:25:27.684Z,16.55
2022-08-26T02:27:56.675Z,16.33
2022-08-26T02:30:29.433Z,16.27
2022-08-26T02:32:59.561Z,15.77
2022-08-26T02:35:26.406Z,16.48
2022-08-26T02:37:53.506Z,17.65
2022-08-26T02:40:23.805Z,16.20
2022-08-26T02:42:53.075Z,15.82
2022-08-26T02:47:52.471Z,16.95
2022-08-26T02:50:20.489Z,18.52
2022-08-26T02:52:48.530Z,17.02
2022-08-26T02:55:16.090Z,15.98
2022-08-26T02:57:43.237Z,17.67
2022-08-26T03:00:14.690Z,15.93
2022-08-26T03:02:42.234Z,17.05
2022-08-26T03:05:09.601Z,15.43
2022-08-26T03:07:36.265Z,15.13
2022-08-26T03:10:06.881Z,16.27
2022-08-26T03:12:35.943Z,16.55
2022-08-26T03:15:03.390Z,15.90
2022-08-26T03:17:46.945Z,16.13
2022-08-26T03:20:15.597Z,12.75
2022-08-26T03:22:44.821Z,11.88
2022-08-26T03:25:15.149Z,13.73
2022-08-26T03:27:43.028Z,14.00
2022-08-26T03:30:30.038Z,12.18
2022-08-26T03:32:57.176Z,14.15
2022-08-26T03:35:25.822Z,13.63
2022-08-26T03:37:53.740Z,14.35
2022-08-26T03:40:21.586Z,12.93
2022-08-26T03:42:50.306Z,13.82
2022-08-26T03:45:19.913Z,13.60
2022-08-26T03:47:48.063Z,12.68
2022-08-26T03:50:22.787Z,13.38
2022-08-26T03:52:51.596Z,13.70
2022-08-26T03:55:19.487Z,13.93
2022-08-26T03:57:50.638Z,13.43
2022-08-26T04:00:18.681Z,13.75
2022-08-26T04:02:48.825Z,14.27
2022-08-26T04:05:18.173Z,13.05
2022-08-26T04:07:45.532Z,11.82
2022-08-26T04:10:14.559Z,12.25
2022-08-26T04:12:46.221Z,13.57
2022-08-26T04:15:16.194Z,14.93
2022-08-26T04:17:44.617Z,15.45
2022-08-26T04:20:13.978Z,14.77
2022-08-26T04:22:43.168Z,14.13
2022-08-26T04:25:10.622Z,13.65
2022-08-26T04:27:37.873Z,14.60
2022-08-26T04:30:07.688Z,14.43
2022-08-26T04:32:35.685Z,13.70
2022-08-26T04:35:04.575Z,15.73
2022-08-26T04:37:31.391Z,15.98
2022-08-26T04:39:59.528Z,15.50
2022-08-26T04:42:26.359Z,13.38
2022-08-26T04:44:53.288Z,12.82
2022-08-26T04:47:20.122Z,11.98
2022-08-26T04:49:46.821Z,12.48
2022-08-26T04:52:13.658Z,12.38
2022-08-26T04:54:42.019Z,11.52
2022-08-26T04:57:08.920Z,11.55
2022-08-26T04:59:39.061Z,11.35
2022-08-26T05:02:07.033Z,11.20
2022-08-26T05:04:34.180Z,11.60
2022-08-26T05:07:02.930Z,11.35
2022-08-26T05:09:30.397Z,10.05
2022-08-26T05:11:57.440Z,13.25
2022-08-26T05:14:24.269Z,11.70
2022-08-26T05:16:51.324Z,12.18
2022-08-26T05:19:19.232Z,13.38
2022-08-26T05:21:48.607Z,14.70
2022-08-26T05:24:16.124Z,12.23
2022-08-26T05:26:44.501Z,12.75
2022-08-26T05:29:11.856Z,11.77
2022-08-26T05:31:38.804Z,11.05
2022-08-26T05:34:05.983Z,10.15
2022-08-26T05:36:35.749Z,9.65
2022-08-26T05:39:05.781Z,9.60
2022-08-26T05:41:36.476Z,9.70
2022-08-26T05:44:10.251Z,8.52
2022-08-26T05:46:38.655Z,9.60
2022-08-26T05:49:12.593Z,8.57
2022-08-26T05:51:45.651Z,8.32
2022-08-26T05:54:14.160Z,8.23
2022-08-26T05:56:48.399Z,7.50
2022-08-26T05:59:16.046Z,7.72
2022-08-26T06:01:48.090Z,9.27
2022-08-26T06:04:14.963Z,7.93
2022-08-26T06:06:42.807Z,9.05
2022-08-26T06:09:11.239Z,8.60
2022-08-26T06:11:38.980Z,8.77
2022-08-26T06:14:07.949Z,8.95
2022-08-26T06:16:38.719Z,9.40
2022-08-26T06:19:10.688Z,11.57
2022-08-26T06:21:40.197Z,11.20
2022-08-26T06:24:29.116Z,12.00
2022-08-26T06:27:01.568Z,11.80
2022-08-26T06:29:30.827Z,13.00
2022-08-26T06:31:58.543Z,12.60
2022-08-26T06:34:30.256Z,13.57
2022-08-26T06:36:59.888Z,13.55
2022-08-26T06:39:30.710Z,15.47
2022-08-26T06:42:02.699Z,15.25
2022-08-26T06:44:33.743Z,16.42
2022-08-26T06:47:00.834Z,14.05
2022-08-26T06:49:27.942Z,13.02
2022-08-26T06:51:59.676Z,13.15
2022-08-26T06:54:27.911Z,12.60
2022-08-26T06:56:57.005Z,12.43
2022-08-26T06:59:24.109Z,14.73
2022-08-26T07:01:50.948Z,12.27
2022-08-26T07:04:20.207Z,13.20
2022-08-26T07:06:52.463Z,12.63
2022-08-26T07:09:22.343Z,14.50
2022-08-26T07:11:49.601Z,12.35
2022-08-26T07:14:21.086Z,14.00
2022-08-26T07:16:49.471Z,14.38
2022-08-26T07:19:17.690Z,14.98
2022-08-26T07:22:00.215Z,17.33
2022-08-26T07:24:28.604Z,16.27
2022-08-26T07:27:02.985Z,16.70
2022-08-26T07:29:32.495Z,16.38
2022-08-26T07:31:59.826Z,16.30
2022-08-26T07:34:27.391Z,15.35
2022-08-26T07:36:55.199Z,15.98
2022-08-26T07:39:22.725Z,17.23
2022-08-26T07:41:49.575Z,17.17
2022-08-26T07:44:16.768Z,16.50
2022-08-26T07:46:44.262Z,16.77
2022-08-26T07:49:19.893Z,17.10
2022-08-26T07:51:46.686Z,16.67
2022-08-26T07:54:13.522Z,15.07
2022-08-26T07:56:40.310Z,17.65
2022-08-26T07:59:13.603Z,16.20
2022-08-26T08:01:45.007Z,16.35
2022-08-26T08:04:17.411Z,14.75
2022-08-26T08:06:45.902Z,14.95
2022-08-26T08:09:16.156Z,14.82
2022-08-26T08:11:44.874Z,13.73
2022-08-26T08:14:13.225Z,15.55
2022-08-26T08:16:46.029Z,14.27
2022-08-26T08:19:15.256Z,13.90
2022-08-26T08:21:43.684Z,13.77
2022-08-26T08:24:11.269Z,14.15
2022-08-26T08:26:38.940Z,11.98
2022-08-26T08:29:06.049Z,14.10
2022-08-26T08:34:21.522Z,14.98
2022-08-26T08:36:50.397Z,12.95
2022-08-26T08:39:20.245Z,14.02
2022-08-26T08:42:13.678Z,13.50
2022-08-26T08:47:25.996Z,12.05
2022-08-26T08:49:55.804Z,12.65
2022-08-26T08:52:35.482Z,13.00
2022-08-26T08:55:11.148Z,11.73
2022-08-26T08:58:02.042Z,11.80
2022-08-26T09:00:58.425Z,11.73
2022-08-26T09:03:54.542Z,11.10
2022-08-26T09:06:21.753Z,11.23
2022-08-26T09:08:51.326Z,10.82
2022-08-26T09:11:19.969Z,10.40
2022-08-26T09:13:53.647Z,10.65
2022-08-26T09:16:24.146Z,10.57
2022-08-26T09:18:56.803Z,9.77
2022-08-26T09:21:25.361Z,9.95
2022-08-26T09:23:55.828Z,7.88
2022-08-26T09:26:39.064Z,8.25
2022-08-26T09:29:14.439Z,8.55
2022-08-26T09:31:41.590Z,8.65
2022-08-26T09:34:17.160Z,7.90
2022-08-26T09:36:56.391Z,7.15
2022-08-26T09:39:39.071Z,7.70
2022-08-26T09:42:14.349Z,8.90
2022-08-26T09:44:55.799Z,8.10
2022-08-26T09:47:30.275Z,8.07
2022-08-26T09:50:23.568Z,9.07
2022-08-26T09:53:30.304Z,9.02
2022-08-26T09:56:39.511Z,8.68
2022-08-26T09:59:11.120Z,8.60
2022-08-26T10:01:43.731Z,8.77
2022-08-26T10:04:22.899Z,8.40
2022-08-26T10:07:03.821Z,8.70
2022-08-26T10:09:36.543Z,8.35
2022-08-26T10:12:09.302Z,9.27
2022-08-26T10:17:30.867Z,8.15
2022-08-26T10:20:06.581Z,8.98
2022-08-26T10:22:55.312Z,8.57
2022-08-26T10:25:28.420Z,8.43
2022-08-26T10:28:04.841Z,7.35
2022-08-26T10:30:43.018Z,7.63
2022-08-26T10:33:15.040Z,7.80
2022-08-26T10:36:05.922Z,7.90
2022-08-26T10:38:38.574Z,7.32
2022-08-26T10:41:17.007Z,6.95
2022-08-26T10:44:07.350Z,7.75
2022-08-26T10:46:50.240Z,6.65
2022-08-26T10:49:18.888Z,5.78
2022-08-26T10:52:00.935Z,6.40
2022-08-26T10:54:52.868Z,5.78
2022-08-26T10:57:27.856Z,5.75
2022-08-26T11:00:50.205Z,5.65
2022-08-26T11:03:47.769Z,6.15
2022-08-26T11:06:19.718Z,5.95
2022-08-26T11:08:47.625Z,6.30
2022-08-26T11:11:40.323Z,6.00
2022-08-26T11:14:29.020Z,6.18
2022-08-26T11:16:57.625Z,5.68
2022-08-26T11:19:50.544Z,6.00
2022-08-26T11:22:32.059Z,5.80
2022-08-26T11:24:58.904Z,5.45
2022-08-26T11:27:26.143Z,6.30
2022-08-26T11:29:57.701Z,6.43
2022-08-26T11:32:34.367Z,5.60
2022-08-26T11:35:06.756Z,6.03
2022-08-26T11:37:40.559Z,5.75
2022-08-26T11:40:33.574Z,6.03
2022-08-26T11:43:07.048Z,5.95
2022-08-26T11:45:39.871Z,5.65
2022-08-26T11:48:20.143Z,5.82
2022-08-26T11:51:00.622Z,5.32
2022-08-26T11:53:28.996Z,5.85
2022-08-26T11:55:59.558Z,5.38
2022-08-26T11:58:28.117Z,5.30
2022-08-26T12:00:59.360Z,4.70
2022-08-26T12:06:03.620Z,4.88
2022-08-26T12:08:34.456Z,4.95
2022-08-26T12:11:06.364Z,5.30
2022-08-26T12:16:01.561Z,5.45
2022-08-26T12:18:38.495Z,5.47
2022-08-26T12:21:22.758Z,4.78
2022-08-26T12:23:56.797Z,4.07
2022-08-26T12:26:33.135Z,4.75
2022-08-26T12:29:26.930Z,4.85
2022-08-26T12:32:13.269Z,4.65
2022-08-26T12:34:45.416Z,4.65
2022-08-26T12:37:14.086Z,4.35
2022-08-26T12:39:44.677Z,4.70
2022-08-26T12:42:17.379Z,4.30
2022-08-26T12:45:04.264Z,4.63
2022-08-26T12:47:44.469Z,4.55
2022-08-26T12:50:28.413Z,3.95
2022-08-26T12:53:02.797Z,4.00
2022-08-26T12:55:46.164Z,4.55
2022-08-26T12:58:15.592Z,4.50
2022-08-26T13:00:44.137Z,4.18
2022-08-26T13:03:40.333Z,4.65
2022-08-26T13:06:29.602Z,4.97
2022-08-26T13:09:06.117Z,4.47
2022-08-26T13:11:55.704Z,4.40
2022-08-26T13:14:24.686Z,4.15
2022-08-26T13:16:52.868Z,4.40
2022-08-26T13:19:25.600Z,4.55
2022-08-26T13:21:58.520Z,4.72
2022-08-26T13:24:27.922Z,4.30
2022-08-26T13:26:54.756Z,4.38
2022-08-26T13:29:21.625Z,4.65
2022-08-26T13:31:48.466Z,4.85
2022-08-26T13:34:19.484Z,4.90
2022-08-26T13:36:48.041Z,4.38
2022-08-26T13:39:15.537Z,4.32
2022-08-26T13:41:43.324Z,4.82
2022-08-26T13:44:10.806Z,4.63
2022-08-26T13:46:38.236Z,4.78
2022-08-26T13:49:05.272Z,4.75
2022-08-26T13:51:32.706Z,4.45
2022-08-26T13:53:59.944Z,4.25
2022-08-26T13:56:29.852Z,4.72
2022-08-26T13:58:58.353Z,4.68
2022-08-26T14:01:26.648Z,4.35
2022-08-26T14:03:53.525Z,4.50
2022-08-26T14:06:20.985Z,4.80
2022-08-26T14:08:48.595Z,4.57
2022-08-26T14:11:15.630Z,5.18
2022-08-26T14:13:42.430Z,4.55
2022-08-26T14:16:13.406Z,4.93
2022-08-26T14:18:45.186Z,4.60
2022-08-26T14:21:14.262Z,4.80
2022-08-26T14:23:41.465Z,4.63
2022-08-26T14:26:10.910Z,4.43
2022-08-26T14:28:41.893Z,4.55
2022-08-26T14:31:08.961Z,4.28
2022-08-26T14:33:38.221Z,4.97
2022-08-26T14:36:24.405Z,4.68
2022-08-26T14:38:51.353Z,4.78
2022-08-26T14:41:19.975Z,4.40
2022-08-26T14:44:00.041Z,4.53
2022-08-26T14:46:30.133Z,4.90
2022-08-26T14:49:02.453Z,4.50
2022-08-26T14:51:30.382Z,5.05
2022-08-26T14:54:23.425Z,4.60
2022-08-26T14:56:55.350Z,4.78
2022-08-26T14:59:32.992Z,4.60
2022-08-26T15:02:00.850Z,4.43
2022-08-26T15:04:28.538Z,4.57
2022-08-26T15:06:58.753Z,4.57
2022-08-26T15:09:26.967Z,4.57
2022-08-26T15:11:54.313Z,4.60
2022-08-26T15:14:21.933Z,4.70
2022-08-26T15:16:51.025Z,4.80
2022-08-26T15:19:18.874Z,4.55
2022-08-26T15:21:47.134Z,4.90
2022-08-26T15:24:17.102Z,4.57
2022-08-26T15:26:44.719Z,4.63
2022-08-26T15:29:11.666Z,4.55
2022-08-26T15:31:38.665Z,4.60
2022-08-26T15:34:14.563Z,4.75
2022-08-26T15:36:44.899Z,4.90
2022-08-26T15:39:11.978Z,4.68
2022-08-26T15:41:39.007Z,4.50
2022-08-26T15:44:07.298Z,4.63
2022-08-26T15:46:35.609Z,4.53
2022-08-26T15:49:04.547Z,4.43
2022-08-26T15:51:45.286Z,4.82
2022-08-26T15:54:14.145Z,4.68
2022-08-26T15:56:40.936Z,4.53
2022-08-26T15:59:11.400Z,4.90
2022-08-26T16:01:38.331Z,4.80
2022-08-26T16:04:05.352Z,4.40
2022-08-26T16:06:35.267Z,4.53
2022-08-26T16:09:02.465Z,5.38
2022-08-26T16:11:29.562Z,5.00
2022-08-26T16:13:56.336Z,4.32
2022-08-26T16:16:23.276Z,4.95
2022-08-26T16:18:50.091Z,4.75
2022-08-26T16:21:20.205Z,5.03
2022-08-26T16:23:47.727Z,4.78
2022-08-26T16:26:18.454Z,5.10
2022-08-26T16:28:45.492Z,5.05
2022-08-26T16:31:13.143Z,4.97
2022-08-26T16:33:40.772Z,5.07
2022-08-26T16:36:08.776Z,5.43
2022-08-26T16:38:37.607Z,4.63
2022-08-26T16:41:04.952Z,4.85
2022-08-26T16:43:31.860Z,5.13
2022-08-26T16:45:58.865Z,4.97
2022-08-26T16:48:26.828Z,4.88
2022-08-26T16:50:55.494Z,5.03
2022-08-26T16:53:22.876Z,5.10
2022-08-26T16:55:50.353Z,4.63
2022-08-26T16:58:17.883Z,4.65
2022-08-26T17:00:45.341Z,5.05
2022-08-26T17:03:12.617Z,5.10
2022-08-26T17:05:40.315Z,4.93
2022-08-26T17:08:07.351Z,5.18
2022-08-26T17:10:34.534Z,5.38
2022-08-26T17:13:01.396Z,5.28
2022-08-26T17:15:28.645Z,5.07
2022-08-26T17:17:56.765Z,4.97
2022-08-26T17:20:24.840Z,5.70
2022-08-26T17:22:53.897Z,6.93
2022-08-26T17:25:25.807Z,6.55
2022-08-26T17:27:52.943Z,5.95
2022-08-26T17:30:21.077Z,5.65
2022-08-26T17:32:48.411Z,5.97
2022-08-26T17:35:16.068Z,6.97
2022-08-26T17:37:43.536Z,5.32
2022-08-26T17:40:13.933Z,5.47
2022-08-26T17:42:41.322Z,5.30
2022-08-26T17:45:09.909Z,5.68
2022-08-26T17:47:37.477Z,5.28
2022-08-26T17:50:06.295Z,5.93
2022-08-26T17:52:33.036Z,5.70
2022-08-26T17:54:59.771Z,6.10
2022-08-26T17:57:27.145Z,5.97
2022-08-26T17:59:54.468Z,5.72
2022-08-26T18:02:21.536Z,5.82
2022-08-26T18:04:48.597Z,5.43
2022-08-26T18:07:16.331Z,6.05
2022-08-26T18:09:43.349Z,5.70
2022-08-26T18:12:11.017Z,36.90
2022-08-26T18:14:38.059Z,24.52
2022-08-26T18:17:05.066Z,8.82
2022-08-26T18:19:31.928Z,7.38
2022-08-26T18:21:58.979Z,7.95
2022-08-26T18:24:28.637Z,6.95
2022-08-26T18:26:55.435Z,7.13
2022-08-26T18:29:22.288Z,37.28
2022-08-26T18:31:49.579Z,16.00
2022-08-26T18:34:16.964Z,13.73
2022-08-26T18:36:44.169Z,6.90
2022-08-26T18:39:12.618Z,7.75
2022-08-26T18:41:44.212Z,7.72
2022-08-26T18:46:41.569Z,7.07
2022-08-26T18:49:10.824Z,7.30
2022-08-26T18:51:38.159Z,7.53
2022-08-26T18:54:06.973Z,7.18
2022-08-26T18:56:35.928Z,7.55
2022-08-26T18:59:04.907Z,7.03
2022-08-26T19:01:32.738Z,7.70
2022-08-26T19:04:01.992Z,7.75
2022-08-26T19:06:31.638Z,7.03
2022-08-26T19:08:59.122Z,9.80
2022-08-26T19:11:32.535Z,8.35
2022-08-26T19:14:09.158Z,8.13
2022-08-26T19:16:37.462Z,7.72
2022-08-26T19:19:05.269Z,7.72
2022-08-26T19:21:35.750Z,7.38
2022-08-26T19:24:12.642Z,8.17
2022-08-26T19:26:40.042Z,7.35
2022-08-26T19:29:07.412Z,8.38
2022-08-26T19:31:35.143Z,8.05
2022-08-26T19:34:02.390Z,8.18
2022-08-26T19:36:29.745Z,7.90
2022-08-26T19:38:57.388Z,7.75
2022-08-26T19:41:37.183Z,7.85
2022-08-26T19:44:37.347Z,7.28
2022-08-26T19:47:06.550Z,8.20
2022-08-26T19:49:43.348Z,8.38
2022-08-26T19:52:12.070Z,8.48
2022-08-26T19:54:40.042Z,8.18
2022-08-26T19:57:07.259Z,8.27
2022-08-26T19:59:36.359Z,8.50
2022-08-26T20:02:10.913Z,9.48
2022-08-26T20:04:39.390Z,9.07
2022-08-26T20:07:06.462Z,9.13
2022-08-26T20:09:34.227Z,8.45
2022-08-26T20:12:02.702Z,9.05
2022-08-26T20:14:30.707Z,7.90
2022-08-26T20:16:57.965Z,8.57
2022-08-26T20:19:43.534Z,8.73
2022-08-26T20:22:11.113Z,10.05
2022-08-26T20:24:38.122Z,9.80
2022-08-26T20:27:07.970Z,8.85
2022-08-26T20:29:36.060Z,8.98
2022-08-26T20:32:05.951Z,8.90
2022-08-26T20:34:33.843Z,8.77
2022-08-26T20:37:01.212Z,8.70
2022-08-26T20:39:29.621Z,8.93
2022-08-26T20:41:57.812Z,9.02
2022-08-26T20:44:25.185Z,9.02
2022-08-26T20:46:51.957Z,9.75
2022-08-26T20:49:18.722Z,9.80
2022-08-26T20:51:48.247Z,12.70
2022-08-26T20:54:15.427Z,11.27
2022-08-26T20:56:42.227Z,12.25
2022-08-26T20:59:09.923Z,19.25
2022-08-26T21:01:42.419Z,10.43
2022-08-26T21:04:17.035Z,9.27
2022-08-26T21:06:49.894Z,9.15
2022-08-26T21:09:21.424Z,9.02
2022-08-26T21:11:48.603Z,10.65
2022-08-26T21:14:16.843Z,10.73
2022-08-26T21:16:44.776Z,10.80
2022-08-26T21:19:14.564Z,11.90
2022-08-26T21:21:42.080Z,11.73
2022-08-26T21:24:09.110Z,11.52
2022-08-26T21:26:36.160Z,11.38
2022-08-26T21:29:04.045Z,13.05
2022-08-26T21:31:32.297Z,13.02
2022-08-26T21:34:00.026Z,11.18
2022-08-26T21:36:27.270Z,11.43
2022-08-26T21:38:58.504Z,11.73
2022-08-26T21:41:26.805Z,12.00
2022-08-26T21:43:59.199Z,13.10
2022-08-26T21:46:29.323Z,12.68
2022-08-26T21:49:00.441Z,12.00
2022-08-26T21:51:31.113Z,11.10
2022-08-26T21:53:59.973Z,11.23
2022-08-26T21:56:29.910Z,11.25
2022-08-26T21:58:57.732Z,10.95
2022-08-26T22:01:27.849Z,10.95
2022-08-26T22:03:55.699Z,10.85
2022-08-26T22:06:25.273Z,10.88
2022-08-26T22:08:52.923Z,11.48
2022-08-26T22:11:20.716Z,11.82
2022-08-26T22:13:48.680Z,13.15
2022-08-26T22:16:16.467Z,11.32
2022-08-26T22:18:45.109Z,10.55
2022-08-26T22:21:16.836Z,11.02
2022-08-26T22:23:45.249Z,10.93
2022-08-26T22:26:14.605Z,10.77
2022-08-26T22:28:42.459Z,10.02
2022-08-26T22:31:12.459Z,10.68
2022-08-26T22:33:43.043Z,9.90
2022-08-26T22:36:23.392Z,10.20
2022-08-26T22:38:51.376Z,10.25
2022-08-26T22:41:18.968Z,9.70
2022-08-26T22:43:46.072Z,9.48
2022-08-26T22:46:22.792Z,11.02
2022-08-26T22:48:51.947Z,22.58
2022-08-26T22:51:21.443Z,50.50
2022-08-26T22:53:48.261Z,24.10
2022-08-26T22:56:15.403Z,9.57
2022-08-26T22:58:42.477Z,8.23
2022-08-26T23:01:09.407Z,8.80
2022-08-26T23:03:36.279Z,9.00
2022-08-26T23:06:06.526Z,8.32
2022-08-26T23:08:33.837Z,8.35
2022-08-26T23:11:01.396Z,8.65
2022-08-26T23:13:28.358Z,8.40
2022-08-26T23:16:09.106Z,8.13
2022-08-26T23:18:35.948Z,8.63
2022-08-26T23:21:02.953Z,8.15
2022-08-26T23:23:29.694Z,7.43
2022-08-26T23:25:56.939Z,8.23
2022-08-26T23:28:24.160Z,8.18
2022-08-26T23:30:50.919Z,8.02
2022-08-26T23:33:17.739Z,7.75
2022-08-26T23:35:44.507Z,8.00
2022-08-26T23:38:14.116Z,7.95
2022-08-26T23:40:41.551Z,7.72
2022-08-26T23:43:11.496Z,7.70
2022-08-26T23:45:38.770Z,7.03
2022-08-26T23:48:06.740Z,7.60
2022-08-26T23:50:52.595Z,7.60
2022-08-26T23:53:22.360Z,7.75
2022-08-26T23:55:51.895Z,7.13
2022-08-26T23:58:20.510Z,7.68
